Time;durP1;ratioP1;P1;durP2;ratioP2;P2;SDS_P1;SDS_P2;PMS_P1;PMS_P2;Temp;Humidity;BMP_temperature;BMP_pressure;BME280_temperature;BME280_humidity;BME280_pressure;Samples;Min_cycle;Max_cycle;Signal;HPM_P1;HPM_P2
2020/12/30 00:02:11;;;;;;;8.80;2.22;;;;;;;9.69;49.79;93463.66;5091447;28;20028;-73
2020/12/30 00:04:36;;;;;;;6.78;2.30;;;;;;;9.60;49.73;93470.88;5092842;28;20099;-73
2020/12/30 00:07:02;;;;;;;8.07;2.13;;;;;;;9.47;49.99;93456.66;5080173;28;20484;-74
2020/12/30 00:09:27;;;;;;;7.47;2.83;;;;;;;9.37;50.66;93462.28;5072280;28;20020;-74
2020/12/30 00:11:53;;;;;;;7.63;1.95;;;;;;;9.38;50.73;93464.66;5072165;28;20028;-74
2020/12/30 00:14:18;;;;;;;10.07;2.50;;;;;;;9.33;50.77;93467.47;5082413;28;20032;-68
2020/12/30 00:16:44;;;;;;;6.90;2.38;;;;;;;9.22;50.92;93468.88;5081315;28;20024;-67
2020/12/30 00:19:09;;;;;;;8.07;2.63;;;;;;;9.15;51.51;93465.91;5083114;28;20445;-67
2020/12/30 00:21:34;;;;;;;6.20;2.42;;;;;;;9.10;51.89;93474.00;5081304;28;20385;-68
2020/12/30 00:24:00;;;;;;;9.52;2.95;;;;;;;9.01;52.08;93463.38;5089290;28;20372;-67
2020/12/30 00:26:25;;;;;;;8.57;3.10;;;;;;;9.02;52.05;93473.72;5084908;28;20110;-69
2020/12/30 00:28:52;;;;;;;6.03;2.80;;;;;;;8.93;52.50;93478.22;5080063;28;20398;-67
2020/12/30 00:31:17;;;;;;;10.93;3.47;;;;;;;8.89;52.57;93479.16;5075739;28;20025;-68
2020/12/30 00:33:43;;;;;;;12.23;2.70;;;;;;;8.86;52.72;93469.19;5079967;28;20036;-67
2020/12/30 00:36:09;;;;;;;13.48;2.67;;;;;;;8.63;53.86;93461.34;5081141;28;20040;-68
2020/12/30 00:38:34;;;;;;;14.05;2.92;;;;;;;8.63;53.57;93475.38;5080253;28;20024;-68
2020/12/30 00:41:00;;;;;;;8.57;2.83;;;;;;;8.68;53.74;93485.09;5082056;28;20032;-68
2020/12/30 00:43:25;;;;;;;8.93;2.65;;;;;;;8.57;54.32;93458.03;5085322;28;20024;-67
2020/12/30 00:45:51;;;;;;;6.47;2.60;;;;;;;8.58;54.30;93486.16;5078840;28;20107;-68
2020/12/30 00:48:16;;;;;;;10.90;2.70;;;;;;;8.58;54.19;93470.22;5083593;28;20035;-68
2020/12/30 00:50:41;;;;;;;6.32;2.20;;;;;;;8.50;54.71;93457.69;5086129;28;20476;-68
2020/12/30 00:53:07;;;;;;;12.35;3.10;;;;;;;8.50;54.75;93470.97;5078848;28;20492;-68
2020/12/30 00:55:32;;;;;;;6.53;2.83;;;;;;;8.53;54.58;93469.56;5079007;28;20035;-68
2020/12/30 00:57:58;;;;;;;10.02;3.28;;;;;;;8.33;55.04;93468.25;5075011;28;20032;-67
2020/12/30 01:00:23;;;;;;;13.52;3.42;;;;;;;8.28;55.31;93452.44;5087403;28;20036;-67
2020/12/30 01:02:48;;;;;;;8.32;2.90;;;;;;;8.21;55.37;93461.66;5079806;28;20102;-68
2020/12/30 01:05:14;;;;;;;11.77;2.28;;;;;;;8.12;55.62;93452.09;5082630;28;20023;-67
2020/12/30 01:07:39;;;;;;;11.50;2.72;;;;;;;8.07;56.04;93439.75;5078496;28;20102;-67
2020/12/30 01:10:05;;;;;;;7.47;2.90;;;;;;;8.06;56.54;93459.41;5080075;28;20448;-68
2020/12/30 01:12:31;;;;;;;6.85;2.35;;;;;;;8.04;55.96;93461.59;5082655;28;20484;-67
2020/12/30 01:14:57;;;;;;;8.98;3.45;;;;;;;7.95;56.34;93452.81;5078511;28;20030;-67
2020/12/30 01:17:26;;;;;;;8.15;3.22;;;;;;;7.84;57.15;93450.41;5083951;28;20115;-69
2020/12/30 01:19:51;;;;;;;9.40;3.28;;;;;;;7.84;56.96;93442.47;5074682;28;20021;-68
2020/12/30 01:22:17;;;;;;;7.07;3.00;;;;;;;7.82;56.93;93454.47;5077706;28;20468;-68
2020/12/30 01:24:42;;;;;;;10.57;3.60;;;;;;;7.78;57.36;93458.81;5077317;28;20020;-68
2020/12/30 01:27:08;;;;;;;6.68;2.88;;;;;;;7.64;57.62;93443.00;5082501;28;20383;-68
2020/12/30 01:29:33;;;;;;;11.05;2.92;;;;;;;7.52;58.05;93445.41;5083464;28;20051;-67
2020/12/30 01:31:58;;;;;;;10.70;3.63;;;;;;;7.51;58.10;93438.53;5086155;28;20111;-68
2020/12/30 01:34:24;;;;;;;7.47;3.17;;;;;;;7.49;58.33;93435.41;5079344;28;20539;-67
2020/12/30 01:36:53;;;;;;;10.98;3.15;;;;;;;7.46;58.32;93444.75;5087663;28;20028;-67
2020/12/30 01:39:19;;;;;;;11.15;3.17;;;;;;;7.41;58.39;93435.06;5081162;28;20097;-68
2020/12/30 01:41:46;;;;;;;9.30;3.17;;;;;;;7.37;58.82;93433.31;5070734;28;20032;-67
2020/12/30 01:44:11;;;;;;;10.02;3.40;;;;;;;7.33;59.02;93435.03;5086542;28;20023;-67
2020/12/30 01:46:45;;;;;;;8.35;3.20;;;;;;;7.29;59.33;93423.44;5079138;28;20403;-67
2020/12/30 01:49:17;;;;;;;7.82;3.38;;;;;;;7.29;59.43;93428.75;5075927;28;20024;-67
2020/12/30 01:51:43;;;;;;;15.07;4.32;;;;;;;7.25;59.68;93430.44;5078631;28;20044;-67
2020/12/30 01:54:14;;;;;;;10.50;3.72;;;;;;;7.30;59.47;93428.44;5075646;28;20033;-67
2020/12/30 01:56:40;;;;;;;7.90;3.65;;;;;;;7.28;59.36;93424.53;5082907;28;20550;-67
2020/12/30 01:59:07;;;;;;;8.98;4.15;;;;;;;7.13;60.46;93412.44;5083658;28;20024;-67
2020/12/30 02:01:36;;;;;;;8.90;3.35;;;;;;;7.10;60.30;93411.16;5090002;28;20028;-67
2020/12/30 02:04:04;;;;;;;10.07;3.28;;;;;;;7.07;60.49;93408.34;5080117;28;20028;-67
2020/12/30 02:06:30;;;;;;;15.27;3.78;;;;;;;7.11;60.38;93417.25;5075345;28;20035;-67
2020/12/30 02:08:56;;;;;;;9.93;3.25;;;;;;;7.08;60.51;93413.31;5084213;28;20036;-68
2020/12/30 02:11:24;;;;;;;10.40;3.55;;;;;;;7.02;60.68;93414.53;5089195;28;20039;-67
2020/12/30 02:13:59;;;;;;;10.40;3.60;;;;;;;7.05;60.57;93405.22;5077607;28;20028;-67
2020/12/30 02:16:24;;;;;;;8.02;3.17;;;;;;;7.11;60.53;93410.06;5074143;28;20028;-67
2020/12/30 02:18:50;;;;;;;9.20;3.30;;;;;;;7.12;60.45;93406.31;5085993;28;20101;-67
2020/12/30 02:21:16;;;;;;;6.13;2.97;;;;;;;7.17;60.45;93408.09;5078796;28;20024;-68
2020/12/30 02:23:42;;;;;;;12.05;2.65;;;;;;;7.20;59.91;93399.53;5073882;28;20100;-68
2020/12/30 02:26:07;;;;;;;12.30;2.88;;;;;;;7.20;59.16;93407.47;5084614;28;20020;-67
2020/12/30 02:28:32;;;;;;;8.82;2.17;;;;;;;7.12;59.64;93408.19;5082033;28;20039;-67
2020/12/30 02:30:58;;;;;;;12.32;2.45;;;;;;;6.98;59.86;93389.72;5079268;28;20468;-67
2020/12/30 02:33:23;;;;;;;5.25;2.10;;;;;;;6.98;59.61;93390.50;5086255;28;20024;-67
2020/12/30 02:35:49;;;;;;;5.72;2.60;;;;;;;7.03;59.94;93393.03;5076747;28;20027;-67
2020/12/30 02:38:14;;;;;;;6.45;2.50;;;;;;;6.79;61.14;93392.53;5080807;28;20032;-67
2020/12/30 02:40:39;;;;;;;17.67;4.57;;;;;;;6.83;61.52;93383.69;5075876;28;20036;-67
2020/12/30 02:43:06;;;;;;;9.88;3.35;;;;;;;6.82;60.96;93376.84;5078269;28;20106;-67
2020/12/30 02:45:31;;;;;;;11.23;3.72;;;;;;;6.91;60.46;93376.88;5074896;28;20031;-67
2020/12/30 02:47:56;;;;;;;9.38;2.88;;;;;;;6.99;60.57;93386.75;5081966;28;20403;-67
2020/12/30 02:50:22;;;;;;;7.90;2.25;;;;;;;7.02;60.23;93380.06;5078987;28;20044;-68
2020/12/30 02:52:47;;;;;;;7.88;2.53;;;;;;;7.08;59.49;93389.47;5088263;28;20040;-67
2020/12/30 02:55:13;;;;;;;5.65;2.15;;;;;;;7.17;58.93;93403.56;5078103;28;20043;-68
2020/12/30 02:57:38;;;;;;;5.68;1.92;;;;;;;7.21;59.43;93393.16;5079104;28;20400;-67
2020/12/30 03:00:03;;;;;;;8.35;2.28;;;;;;;7.12;60.14;93371.88;5078412;28;20031;-67
2020/12/30 03:02:30;;;;;;;8.45;2.63;;;;;;;7.23;59.95;93406.88;5079642;28;20035;-68
2020/12/30 03:04:55;;;;;;;6.55;2.70;;;;;;;7.33;59.78;93387.31;5077356;28;20027;-67
2020/12/30 03:07:21;;;;;;;7.72;2.90;;;;;;;7.29;59.74;93397.72;5081501;28;20028;-67
2020/12/30 03:09:47;;;;;;;8.30;2.65;;;;;;;7.07;60.59;93389.78;5073878;28;20020;-67
2020/12/30 03:12:13;;;;;;;6.32;2.78;;;;;;;7.10;60.08;93376.69;5075160;28;20099;-68
2020/12/30 03:14:38;;;;;;;13.50;2.92;;;;;;;7.15;60.55;93404.97;5079259;28;20163;-68
2020/12/30 03:17:04;;;;;;;13.55;3.00;;;;;;;7.15;60.45;93386.41;5088025;28;20078;-68
2020/12/30 03:19:29;;;;;;;12.57;2.65;;;;;;;7.19;60.56;93376.75;5076196;28;20543;-69
2020/12/30 03:21:56;;;;;;;6.32;2.55;;;;;;;7.29;60.15;93408.31;5082670;28;20035;-67
2020/12/30 03:24:22;;;;;;;10.32;3.15;;;;;;;7.26;59.88;93379.75;5079331;28;20021;-68
2020/12/30 03:26:48;;;;;;;6.10;1.98;;;;;;;7.30;59.96;93393.97;5082238;28;20025;-68
2020/12/30 03:29:13;;;;;;;9.93;2.63;;;;;;;7.39;59.43;93394.81;5080989;28;20028;-69
2020/12/30 03:31:39;;;;;;;6.25;2.53;;;;;;;7.46;58.91;93388.28;5084229;28;20513;-68
2020/12/30 03:34:04;;;;;;;11.35;2.63;;;;;;;7.52;58.78;93387.06;5082204;28;20036;-70
2020/12/30 03:36:30;;;;;;;14.52;2.95;;;;;;;7.46;58.91;93396.25;5081912;28;20513;-68
2020/12/30 03:38:55;;;;;;;5.55;2.67;;;;;;;7.47;58.82;93368.63;5081356;28;20039;-68
2020/12/30 03:41:21;;;;;;;10.02;2.47;;;;;;;7.45;59.61;93395.47;5086482;28;20030;-67
2020/12/30 03:43:46;;;;;;;7.13;2.80;;;;;;;7.59;58.63;93382.09;5082386;28;20028;-67
2020/12/30 03:46:11;;;;;;;10.85;2.33;;;;;;;7.52;58.95;93356.03;5077945;28;20024;-67
2020/12/30 03:48:37;;;;;;;11.15;2.65;;;;;;;7.52;59.12;93387.06;5086200;28;20024;-69
2020/12/30 03:51:02;;;;;;;9.98;2.25;;;;;;;7.35;59.48;93361.28;5084075;28;20020;-68
2020/12/30 03:53:28;;;;;;;8.27;2.70;;;;;;;7.31;59.76;93366.38;5079817;28;20080;-68
2020/12/30 03:55:53;;;;;;;8.98;3.00;;;;;;;7.35;59.88;93375.28;5106433;28;20103;-68
2020/12/30 03:58:20;;;;;;;7.85;2.60;;;;;;;7.29;59.56;93373.09;5087569;28;20034;-68
2020/12/30 04:00:45;;;;;;;8.20;2.30;;;;;;;7.30;59.83;93370.09;5080655;28;20016;-67
2020/12/30 04:03:11;;;;;;;4.65;1.95;;;;;;;7.12;60.35;93387.78;5082771;28;20107;-68
2020/12/30 04:05:36;;;;;;;8.30;2.55;;;;;;;7.15;59.96;93395.13;5078631;28;20024;-68
2020/12/30 04:08:02;;;;;;;8.07;2.80;;;;;;;7.05;60.35;93362.81;5081471;28;20501;-68
2020/12/30 04:10:27;;;;;;;7.47;2.15;;;;;;;7.04;58.94;93356.69;5076298;28;20066;-67
2020/12/30 04:12:53;;;;;;;6.45;2.45;;;;;;;7.17;59.46;93386.88;5088943;28;20048;-68
2020/12/30 04:15:18;;;;;;;5.47;2.10;;;;;;;7.16;59.80;93374.72;5079644;28;20069;-67
2020/12/30 04:17:44;;;;;;;10.25;2.45;;;;;;;7.21;59.68;93374.59;5080725;28;20044;-67
2020/12/30 04:20:09;;;;;;;9.55;2.33;;;;;;;7.27;59.48;93369.97;5087042;28;20032;-68
2020/12/30 04:22:34;;;;;;;6.65;2.85;;;;;;;7.28;59.52;93361.69;5082795;28;20113;-67
2020/12/30 04:25:00;;;;;;;8.55;2.63;;;;;;;7.31;59.25;93368.25;5083198;28;20020;-68
2020/12/30 04:27:25;;;;;;;6.80;2.55;;;;;;;7.32;58.78;93380.41;5085170;28;20521;-67
2020/12/30 04:29:51;;;;;;;5.13;1.90;;;;;;;7.34;57.68;93351.72;5079497;28;20063;-67
2020/12/30 04:32:16;;;;;;;7.18;2.95;;;;;;;7.39;57.78;93370.94;5082007;28;20024;-69
2020/12/30 04:34:42;;;;;;;15.15;5.47;;;;;;;7.44;58.01;93376.09;5084011;28;20224;-67
2020/12/30 04:37:07;;;;;;;11.85;4.03;;;;;;;7.41;58.13;93368.00;5088317;28;20060;-69
2020/12/30 04:39:33;;;;;;;8.15;3.22;;;;;;;7.18;58.53;93383.13;5081329;28;20051;-68
2020/12/30 04:42:00;;;;;;;15.88;3.08;;;;;;;7.01;58.92;93368.69;5083338;28;20103;-67
2020/12/30 04:44:32;;;;;;;9.32;3.30;;;;;;;6.95;59.45;93372.56;5085037;28;20475;-68
2020/12/30 04:46:59;;;;;;;10.85;2.90;;;;;;;6.99;59.90;93370.88;5079875;28;20056;-68
2020/12/30 04:49:25;;;;;;;8.65;2.70;;;;;;;6.97;59.67;93372.25;5085502;28;20464;-67
2020/12/30 04:51:53;;;;;;;12.60;3.95;;;;;;;7.02;59.47;93380.88;5077611;28;20041;-67
2020/12/30 04:54:21;;;;;;;7.35;2.78;;;;;;;6.94;59.82;93373.66;5087455;28;20103;-68
2020/12/30 04:57:02;;;;;;;10.75;4.10;;;;;;;6.99;59.66;93376.16;5077450;28;20475;-68
2020/12/30 04:59:32;;;;;;;14.00;3.30;;;;;;;6.94;59.16;93378.16;5106197;28;20067;-68
2020/12/30 05:02:11;;;;;;;9.65;3.33;;;;;;;6.96;59.36;93390.03;5105689;28;20044;-67
2020/12/30 05:04:38;;;;;;;9.32;4.20;;;;;;;6.98;59.42;93363.22;5077506;28;20031;-68
2020/12/30 05:07:12;;;;;;;16.20;5.10;;;;;;;6.97;59.34;93383.63;5078722;28;20024;-68
2020/12/30 05:09:43;;;;;;;14.15;4.55;;;;;;;6.92;59.06;93370.53;5107279;28;20155;-67
2020/12/30 05:12:17;;;;;;;17.33;6.40;;;;;;;6.93;59.01;93366.00;5085871;28;20044;-67
2020/12/30 05:14:43;;;;;;;13.40;4.82;;;;;;;6.81;58.83;93382.44;5082974;28;20089;-68
2020/12/30 05:17:10;;;;;;;7.85;2.60;;;;;;;6.67;58.72;93369.22;5081609;28;20032;-67
2020/12/30 05:19:36;;;;;;;8.70;2.15;;;;;;;6.59;58.88;93357.50;5079911;28;20028;-68
2020/12/30 05:22:03;;;;;;;8.27;3.03;;;;;;;6.60;59.25;93374.19;5090479;28;20028;-67
2020/12/30 05:24:28;;;;;;;13.57;2.95;;;;;;;6.53;59.10;93366.63;5081524;28;20020;-69
2020/12/30 05:26:55;;;;;;;10.35;2.63;;;;;;;6.56;59.11;93363.41;5082691;28;20024;-68
2020/12/30 05:29:23;;;;;;;9.77;3.33;;;;;;;6.57;59.24;93343.78;5081204;28;20495;-67
2020/12/30 05:31:55;;;;;;;15.05;3.80;;;;;;;6.61;58.99;93363.28;5104848;28;20031;-68
2020/12/30 05:34:23;;;;;;;14.10;4.55;;;;;;;6.37;59.73;93360.09;5078124;28;20471;-67
2020/12/30 05:36:49;;;;;;;8.38;4.68;;;;;;;6.40;59.89;93376.19;5075201;28;20103;-68
2020/12/30 05:39:41;;;;;;;9.27;3.63;;;;;;;6.39;59.78;93324.34;5082532;28;20028;-67
2020/12/30 05:42:18;;;;;;;10.40;3.67;;;;;;;6.44;60.15;93336.66;5076147;28;20047;-67
2020/12/30 05:44:45;;;;;;;9.80;3.63;;;;;;;6.49;59.77;93325.16;5083541;28;20028;-67
2020/12/30 05:47:12;;;;;;;8.93;4.00;;;;;;;6.50;59.76;93338.13;5074080;28;20088;-67
2020/12/30 05:49:37;;;;;;;13.65;3.80;;;;;;;6.52;59.84;93338.59;5083244;28;20097;-67
2020/12/30 05:52:16;;;;;;;6.22;2.70;;;;;;;6.47;60.02;93349.28;5078384;28;20048;-67
2020/12/30 05:54:52;;;;;;;9.98;3.17;;;;;;;6.46;60.03;93337.16;5105675;28;20407;-67
2020/12/30 05:57:24;;;;;;;11.88;4.72;;;;;;;6.49;59.71;93302.13;5082194;28;20020;-68
2020/12/30 05:59:51;;;;;;;;;;;;;;;6.36;59.63;93311.69;5076907;28;20524;-67
2020/12/30 06:02:21;;;;;;;7.75;3.05;;;;;;;6.45;59.33;93348.03;5078868;28;19916;-67
2020/12/30 06:04:46;;;;;;;11.77;3.00;;;;;;;6.55;59.24;93316.81;5079781;28;20021;-67
2020/12/30 06:07:13;;;;;;;14.02;4.07;;;;;;;6.62;59.05;93359.53;5084667;28;20028;-67
2020/12/30 06:09:39;;;;;;;9.50;3.03;;;;;;;6.49;59.97;93356.94;5084123;28;20082;-69
2020/12/30 06:12:06;;;;;;;11.25;3.40;;;;;;;6.43;60.76;93372.94;5073523;28;20052;-67
2020/12/30 06:14:33;;;;;;;15.70;4.45;;;;;;;6.46;60.99;93353.03;5105083;28;20448;-67
2020/12/30 06:17:05;;;;;;;13.73;3.15;;;;;;;6.32;61.29;93374.25;5076534;28;20399;-67
2020/12/30 06:19:36;;;;;;;11.73;3.83;;;;;;;6.31;62.05;93358.66;5077072;28;20025;-68
2020/12/30 06:22:01;;;;;;;19.20;5.47;;;;;;;6.13;63.45;93361.16;5079693;28;20102;-67
2020/12/30 06:24:28;;;;;;;10.65;4.68;;;;;;;6.07;63.42;93367.63;5075934;28;20454;-67
2020/12/30 06:27:02;;;;;;;15.80;4.28;;;;;;;5.95;64.56;93391.94;5079362;28;20028;-68
2020/12/30 06:29:29;;;;;;;14.88;5.28;;;;;;;5.97;64.74;93350.09;5082283;28;20063;-68
2020/12/30 06:31:55;;;;;;;13.25;4.15;;;;;;;5.93;64.70;93388.78;5081415;28;20032;-67
2020/12/30 06:34:20;;;;;;;19.73;6.93;;;;;;;6.07;64.39;93380.84;5076816;28;20037;-68
2020/12/30 06:36:46;;;;;;;10.77;4.97;;;;;;;6.01;64.54;93392.63;5076205;28;20048;-67
2020/12/30 06:39:23;;;;;;;17.23;4.47;;;;;;;6.02;64.42;93402.13;5080100;28;20035;-67
2020/12/30 06:42:02;;;;;;;8.68;3.92;;;;;;;6.10;64.26;93376.84;5081154;28;20613;-68
2020/12/30 06:44:45;;;;;;;12.57;4.43;;;;;;;6.21;64.13;93404.66;5081145;28;20020;-68
2020/12/30 06:47:13;;;;;;;12.23;5.32;;;;;;;6.12;64.19;93407.19;5081100;28;20527;-68
2020/12/30 06:49:39;;;;;;;14.27;4.47;;;;;;;6.18;64.31;93408.66;5078809;28;20466;-67
2020/12/30 06:52:28;;;;;;;13.57;4.93;;;;;;;6.23;64.33;93421.81;5085772;28;20067;-68
2020/12/30 06:54:54;;;;;;;9.07;4.70;;;;;;;6.25;64.11;93415.41;5072804;28;20050;-67
2020/12/30 06:57:38;;;;;;;24.77;5.43;;;;;;;6.38;63.72;93412.75;5076463;28;20111;-67
2020/12/30 07:00:21;;;;;;;20.70;5.38;;;;;;;6.45;63.79;93436.16;5083677;28;22168;-67
2020/12/30 07:03:19;;;;;;;15.70;5.25;;;;;;;6.53;63.48;93397.63;5074579;28;20514;-68
2020/12/30 07:05:45;;;;;;;11.77;3.92;;;;;;;6.49;63.28;93418.59;5086072;28;20027;-68
2020/12/30 07:08:12;;;;;;;18.00;5.25;;;;;;;6.50;62.70;93424.72;5072289;28;20588;-67
2020/12/30 07:10:45;;;;;;;12.63;4.60;;;;;;;6.62;62.88;93444.28;5079466;28;20424;-67
2020/12/30 07:13:27;;;;;;;12.90;4.95;;;;;;;6.76;62.49;93443.47;5075182;28;20028;-68
2020/12/30 07:16:14;;;;;;;15.25;6.40;;;;;;;6.87;62.12;93442.16;5104512;28;20399;-67
2020/12/30 07:18:47;;;;;;;13.55;5.00;;;;;;;7.06;61.01;93455.22;5100234;28;20031;-67
2020/12/30 07:21:13;;;;;;;;;;;;;;;7.17;59.48;93442.53;5078633;28;20035;-67
2020/12/30 07:23:38;;;;;;;16.00;4.90;;;;;;;7.24;60.24;93434.94;5075189;28;19912;-67
2020/12/30 07:26:04;;;;;;;13.68;5.53;;;;;;;7.34;59.30;93455.91;5084831;28;20024;-67
2020/12/30 07:28:30;;;;;;;23.00;7.60;;;;;;;7.40;59.55;93436.13;5082220;28;20059;-67
2020/12/30 07:30:55;;;;;;;25.75;6.38;;;;;;;7.47;58.66;93411.06;5074428;28;20476;-67
2020/12/30 07:33:22;;;;;;;20.42;6.85;;;;;;;7.61;58.79;93422.38;5070861;28;20035;-67
2020/12/30 07:35:48;;;;;;;26.48;9.55;;;;;;;7.74;58.46;93420.72;5084245;28;20028;-67
2020/12/30 07:38:14;;;;;;;23.98;8.38;;;;;;;7.92;58.15;93421.59;5079889;28;20031;-67
2020/12/30 07:40:39;;;;;;;21.80;9.05;;;;;;;8.01;57.57;93414.44;5073362;28;20079;-67
2020/12/30 07:43:05;;;;;;;35.42;9.02;;;;;;;8.18;57.02;93424.31;5078462;28;20479;-67
2020/12/30 07:45:31;;;;;;;17.83;6.47;;;;;;;8.31;56.76;93430.59;5076255;28;20039;-68
2020/12/30 07:47:56;;;;;;;25.73;6.88;;;;;;;8.35;57.20;93442.94;5080778;28;20040;-67
2020/12/30 07:50:25;;;;;;;18.00;4.05;;;;;;;8.43;53.20;93423.63;5075518;28;20036;-68
2020/12/30 07:52:51;;;;;;;17.80;4.68;;;;;;;8.49;54.09;93429.59;5075794;28;20098;-68
2020/12/30 07:55:25;;;;;;;20.45;5.88;;;;;;;8.50;55.72;93459.56;5080334;28;20024;-68
2020/12/30 07:57:55;;;;;;;12.98;4.72;;;;;;;8.56;55.76;93437.84;5083149;28;20028;-68
2020/12/30 08:00:20;;;;;;;15.98;4.50;;;;;;;8.61;55.34;93435.06;5079227;28;20035;-66
2020/12/30 08:02:45;;;;;;;15.35;4.78;;;;;;;8.63;55.59;93430.22;5080751;28;20475;-67
2020/12/30 08:05:11;;;;;;;14.63;4.65;;;;;;;8.62;56.49;93428.66;5082047;28;20020;-68
2020/12/30 08:07:36;;;;;;;24.23;6.82;;;;;;;8.71;55.15;93427.88;5077425;28;20030;-67
2020/12/30 08:10:02;;;;;;;19.83;5.70;;;;;;;8.72;55.83;93434.78;5078804;28;20024;-67
2020/12/30 08:12:27;;;;;;;22.58;6.40;;;;;;;8.70;56.45;93436.97;5086375;28;20050;-68
2020/12/30 08:14:53;;;;;;;16.85;5.05;;;;;;;8.78;55.88;93442.28;5080975;28;20026;-67
2020/12/30 08:17:20;;;;;;;14.30;4.93;;;;;;;8.75;55.64;93431.47;5079274;28;20025;-68
2020/12/30 08:19:47;;;;;;;16.05;4.13;;;;;;;8.83;53.22;93412.09;5083857;28;20028;-67
2020/12/30 08:22:12;;;;;;;15.05;3.45;;;;;;;8.90;53.38;93427.59;5078125;28;20041;-67
2020/12/30 08:24:51;;;;;;;14.32;5.00;;;;;;;8.83;54.65;93467.91;5079414;28;21445;-67
2020/12/30 08:27:19;;;;;;;18.58;4.80;;;;;;;8.80;55.29;93439.31;5080688;28;20082;-67
2020/12/30 08:29:46;;;;;;;14.23;5.07;;;;;;;8.66;55.58;93406.78;5082041;28;20028;-67
2020/12/30 08:32:14;;;;;;;19.80;5.82;;;;;;;8.64;56.56;93453.03;5078759;28;20424;-68
2020/12/30 08:34:47;;;;;;;12.95;4.43;;;;;;;8.53;56.31;93433.19;5085050;28;20030;-68
2020/12/30 08:37:21;;;;;;;17.08;5.13;;;;;;;8.63;56.54;93442.75;5084090;28;20035;-67
2020/12/30 08:39:56;;;;;;;17.80;6.53;;;;;;;8.81;56.07;93416.94;5085459;28;20391;-67
2020/12/30 08:42:45;;;;;;;25.95;4.47;;;;;;;8.81;54.31;93440.84;5085370;28;20134;-67
2020/12/30 08:45:13;;;;;;;6.93;3.10;;;;;;;8.94;52.86;93410.72;5106066;28;20027;-68
2020/12/30 08:47:39;;;;;;;18.65;4.57;;;;;;;9.08;53.61;93391.13;5083502;28;20475;-68
2020/12/30 08:50:14;;;;;;;11.00;4.15;;;;;;;9.12;53.08;93410.69;5082238;28;20031;-68
2020/12/30 08:52:41;;;;;;;7.70;3.55;;;;;;;9.26;52.54;93413.16;5077711;28;20052;-68
2020/12/30 08:55:07;;;;;;;9.20;3.45;;;;;;;9.43;52.49;93402.50;5082038;28;20032;-68
2020/12/30 08:57:33;;;;;;;15.20;2.85;;;;;;;9.67;51.56;93407.31;5083600;28;20389;-68
2020/12/30 09:00:12;;;;;;;17.95;2.97;;;;;;;9.93;51.39;93406.41;5081843;28;20020;-68
2020/12/30 09:02:37;;;;;;;6.65;3.03;;;;;;;10.16;50.45;93398.97;5083680;28;20027;-68
2020/12/30 09:05:03;;;;;;;8.85;3.13;;;;;;;10.38;48.93;93401.41;5083061;28;20032;-68
2020/12/30 09:07:28;;;;;;;14.35;3.00;;;;;;;10.56;48.90;93383.41;5079573;28;20132;-68
2020/12/30 09:10:08;;;;;;;14.27;2.70;;;;;;;10.79;47.64;93385.78;5083019;28;20039;-68
2020/12/30 09:12:33;;;;;;;12.20;2.65;;;;;;;10.95;47.17;93372.59;5075831;28;20029;-69
2020/12/30 09:14:59;;;;;;;4.47;1.15;;;;;;;11.11;43.97;93354.88;5081309;28;20041;-69
2020/12/30 09:17:24;;;;;;;10.32;2.05;;;;;;;11.30;44.14;93375.75;5081292;28;20024;-68
2020/12/30 09:19:50;;;;;;;15.52;2.65;;;;;;;11.39;44.81;93349.75;5080891;28;20020;-67
2020/12/30 09:22:16;;;;;;;14.43;3.75;;;;;;;11.36;45.47;93352.31;5080165;28;20031;-67
2020/12/30 09:24:43;;;;;;;16.40;3.25;;;;;;;11.51;46.08;93365.03;5083817;28;20020;-67
2020/12/30 09:27:29;;;;;;;11.05;3.75;;;;;;;11.61;46.63;93382.50;5078490;28;20457;-67
2020/12/30 09:30:17;;;;;;;12.57;3.97;;;;;;;11.71;46.78;93386.66;5081672;28;20031;-68
2020/12/30 09:32:44;;;;;;;18.95;4.43;;;;;;;11.73;46.58;93379.84;5083699;28;20056;-68
2020/12/30 09:35:13;;;;;;;12.73;4.22;;;;;;;11.75;45.62;93377.63;5078612;28;20097;-69
2020/12/30 09:37:40;;;;;;;19.27;3.92;;;;;;;11.79;45.02;93380.44;5079677;28;20423;-68
2020/12/30 09:40:15;;;;;;;15.77;2.95;;;;;;;11.81;45.29;93376.31;5079001;28;20032;-68
2020/12/30 09:42:42;;;;;;;13.73;3.15;;;;;;;11.86;45.74;93386.00;5083528;28;20028;-68
2020/12/30 09:45:10;;;;;;;6.47;2.30;;;;;;;11.86;45.32;93386.00;5083522;28;20039;-68
2020/12/30 09:47:37;;;;;;;18.63;2.25;;;;;;;11.90;45.09;93378.91;5076210;28;20039;-68
2020/12/30 09:50:04;;;;;;;7.13;2.08;;;;;;;11.91;44.57;93374.34;5076176;28;20028;-69
2020/12/30 09:52:38;;;;;;;10.73;3.92;;;;;;;11.73;44.63;93377.19;5080293;28;20048;-68
2020/12/30 09:55:04;;;;;;;14.90;3.30;;;;;;;11.80;44.51;93385.41;5077479;28;20097;-69
2020/12/30 09:57:30;;;;;;;12.00;2.90;;;;;;;11.92;45.76;93373.22;5079522;28;20082;-68
2020/12/30 09:59:56;;;;;;;11.93;2.95;;;;;;;12.08;45.65;93363.44;5081907;28;20447;-68
2020/12/30 10:02:21;;;;;;;18.40;2.70;;;;;;;12.27;44.59;93351.41;5078243;28;20430;-68
2020/12/30 10:04:47;;;;;;;18.38;2.50;;;;;;;12.42;42.99;93351.50;5085023;28;20020;-68
2020/12/30 10:07:12;;;;;;;5.65;1.83;;;;;;;12.62;42.17;93349.03;5078751;28;20115;-68
2020/12/30 10:09:38;;;;;;;7.93;1.98;;;;;;;12.77;41.85;93328.81;5079768;28;20119;-68
2020/12/30 10:12:04;;;;;;;8.93;2.45;;;;;;;12.87;41.97;93330.25;5077985;28;21245;-68
2020/12/30 10:14:29;;;;;;;13.50;3.03;;;;;;;13.03;41.60;93339.88;5084847;28;20469;-69
2020/12/30 10:16:55;;;;;;;9.15;3.28;;;;;;;13.12;42.18;93344.28;5082450;28;20074;-69
2020/12/30 10:19:20;;;;;;;10.43;3.20;;;;;;;13.10;42.13;93339.28;5080320;28;20116;-69
2020/12/30 10:21:46;;;;;;;12.27;2.85;;;;;;;13.13;41.70;93337.84;5078561;28;20025;-69
2020/12/30 10:24:11;;;;;;;15.60;3.03;;;;;;;13.13;41.36;93335.16;5078449;28;20446;-69
2020/12/30 10:26:37;;;;;;;13.25;3.35;;;;;;;13.15;40.82;93324.91;5075684;28;20530;-69
2020/12/30 10:29:02;;;;;;;22.50;3.20;;;;;;;13.19;40.71;93333.81;5071507;28;20376;-68
2020/12/30 10:31:28;;;;;;;13.82;2.95;;;;;;;13.20;40.84;93346.81;5084670;28;20047;-69
2020/12/30 10:33:53;;;;;;;9.52;2.78;;;;;;;13.23;40.38;93340.03;5077509;28;20024;-69
2020/12/30 10:36:19;;;;;;;11.23;2.40;;;;;;;13.32;39.60;93332.63;5082447;28;20052;-69
2020/12/30 10:38:45;;;;;;;16.67;3.00;;;;;;;13.33;40.47;93342.22;5073625;28;20051;-69
2020/12/30 10:41:17;;;;;;;14.80;3.67;;;;;;;13.38;40.70;93309.84;5084294;28;20024;-69
2020/12/30 10:43:43;;;;;;;7.25;2.70;;;;;;;13.44;41.14;93307.72;5078682;28;20451;-70
2020/12/30 10:46:16;;;;;;;23.77;3.30;;;;;;;13.50;41.49;93318.94;5084162;28;20028;-69
2020/12/30 10:48:43;;;;;;;19.15;2.65;;;;;;;13.56;40.17;93312.97;5080106;28;20107;-69
2020/12/30 10:51:16;;;;;;;5.13;2.10;;;;;;;13.80;38.53;93312.03;5077544;28;20020;-70
2020/12/30 10:53:42;;;;;;;8.95;1.75;;;;;;;13.97;38.90;93312.81;5079896;28;20063;-70
2020/12/30 10:56:12;;;;;;;13.05;2.17;;;;;;;14.19;38.94;93320.22;5077362;28;20032;-69
2020/12/30 10:58:38;;;;;;;16.52;3.72;;;;;;;14.35;38.30;93298.75;5082907;28;20055;-71
2020/12/30 11:01:13;;;;;;;15.45;1.55;;;;;;;14.49;37.77;93295.59;5082848;28;20050;-69
2020/12/30 11:03:40;;;;;;;8.85;1.75;;;;;;;14.45;36.71;93294.75;5077455;28;20024;-69
2020/12/30 11:06:06;;;;;;;5.18;1.80;;;;;;;14.57;37.24;93286.59;5087789;28;20070;-69
2020/12/30 11:08:32;;;;;;;6.72;1.30;;;;;;;14.67;37.32;93281.78;5072185;28;20056;-70
2020/12/30 11:11:00;;;;;;;16.50;2.47;;;;;;;14.86;36.65;93276.44;5072329;28;20135;-69
2020/12/30 11:13:26;;;;;;;6.90;1.45;;;;;;;14.97;36.57;93272.03;5082394;28;20076;-69
2020/12/30 11:15:52;;;;;;;14.23;4.38;;;;;;;15.07;36.29;93265.31;5077826;28;20093;-71
2020/12/30 11:18:17;;;;;;;17.77;4.55;;;;;;;15.14;35.90;93270.03;5080827;28;20024;-69
2020/12/30 11:20:43;;;;;;;10.20;2.75;;;;;;;15.16;35.02;93268.56;5077980;28;20108;-70
2020/12/30 11:23:09;;;;;;;13.85;1.90;;;;;;;15.27;34.11;93268.75;5072058;28;20117;-69
2020/12/30 11:25:34;;;;;;;9.25;2.05;;;;;;;15.26;34.91;93267.19;5079358;28;20039;-69
2020/12/30 11:28:01;;;;;;;9.48;3.15;;;;;;;15.35;34.92;93270.44;5085140;28;20028;-71
2020/12/30 11:30:28;;;;;;;14.20;2.10;;;;;;;15.55;34.94;93275.75;5077987;28;20028;-69
2020/12/30 11:32:53;;;;;;;7.60;1.40;;;;;;;15.66;34.88;93271.34;5082393;28;20035;-70
2020/12/30 11:35:19;;;;;;;6.70;1.67;;;;;;;15.84;34.68;93248.25;5080889;28;20025;-70
2020/12/30 11:37:44;;;;;;;12.60;1.98;;;;;;;15.93;34.37;93249.91;5076854;28;20089;-69
2020/12/30 11:40:10;;;;;;;7.97;1.77;;;;;;;16.16;34.09;93244.47;5073099;28;20023;-67